sensor_id;sensor_type;location;lat;lon;timestamp;P1;durP1;ratioP1;P2;durP2;ratioP2
34200;SDS011;20469;55.638;37.670;2022-08-19T00:01:52;9.02;;;4.60;;
34200;SDS011;20469;55.638;37.670;2022-08-19T00:04:22;10.30;;;4.68;;
34200;SDS011;20469;55.638;37.670;2022-08-19T00:06:55;10.27;;;4.50;;
34200;SDS011;20469;55.638;37.670;2022-08-19T00:09:23;11.43;;;5.40;;
34200;SDS011;20469;55.638;37.670;2022-08-19T00:11:51;12.55;;;4.70;;
34200;SDS011;20469;55.638;37.670;2022-08-19T00:14:19;13.38;;;4.70;;
34200;SDS011;20469;55.638;37.670;2022-08-19T00:16:49;7.47;;;4.03;;
34200;SDS011;20469;55.638;37.670;2022-08-19T00:19:21;10.68;;;4.40;;
34200;SDS011;20469;55.638;37.670;2022-08-19T00:21:49;13.25;;;5.15;;
34200;SDS011;20469;55.638;37.670;2022-08-19T00:24:17;9.40;;;4.32;;
34200;SDS011;20469;55.638;37.670;2022-08-19T00:26:45;12.27;;;4.15;;
34200;SDS011;20469;55.638;37.670;2022-08-19T00:29:13;12.63;;;4.78;;
34200;SDS011;20469;55.638;37.670;2022-08-19T00:31:43;12.20;;;4.70;;
34200;SDS011;20469;55.638;37.670;2022-08-19T00:34:11;10.45;;;5.05;;
34200;SDS011;20469;55.638;37.670;2022-08-19T00:36:40;10.80;;;4.53;;
34200;SDS011;20469;55.638;37.670;2022-08-19T00:39:09;10.10;;;5.07;;
34200;SDS011;20469;55.638;37.670;2022-08-19T00:41:37;10.38;;;4.72;;
34200;SDS011;20469;55.638;37.670;2022-08-19T00:44:09;14.77;;;4.60;;
34200;SDS011;20469;55.638;37.670;2022-08-19T00:46:43;11.50;;;4.78;;
34200;SDS011;20469;55.638;37.670;2022-08-19T00:49:36;13.93;;;4.82;;
34200;SDS011;20469;55.638;37.670;2022-08-19T00:52:15;9.82;;;4.72;;
34200;SDS011;20469;55.638;37.670;2022-08-19T00:54:56;13.65;;;4.60;;
34200;SDS011;20469;55.638;37.670;2022-08-19T00:57:26;12.98;;;4.22;;
34200;SDS011;20469;55.638;37.670;2022-08-19T00:59:59;12.93;;;4.10;;
34200;SDS011;20469;55.638;37.670;2022-08-19T01:02:31;13.50;;;4.40;;
34200;SDS011;20469;55.638;37.670;2022-08-19T01:05:00;11.45;;;4.35;;
34200;SDS011;20469;55.638;37.670;2022-08-19T01:07:31;10.38;;;4.35;;
34200;SDS011;20469;55.638;37.670;2022-08-19T01:10:03;7.95;;;4.30;;
34200;SDS011;20469;55.638;37.670;2022-08-19T01:12:37;13.63;;;4.93;;
34200;SDS011;20469;55.638;37.670;2022-08-19T01:15:06;11.45;;;4.70;;
34200;SDS011;20469;55.638;37.670;2022-08-19T01:17:35;12.57;;;4.43;;
34200;SDS011;20469;55.638;37.670;2022-08-19T01:20:05;11.50;;;4.28;;
34200;SDS011;20469;55.638;37.670;2022-08-19T01:22:37;11.23;;;3.72;;
34200;SDS011;20469;55.638;37.670;2022-08-19T01:25:11;10.85;;;3.80;;
34200;SDS011;20469;55.638;37.670;2022-08-19T01:27:44;9.32;;;3.92;;
34200;SDS011;20469;55.638;37.670;2022-08-19T01:30:16;7.80;;;3.45;;
34200;SDS011;20469;55.638;37.670;2022-08-19T01:32:46;10.73;;;3.63;;
34200;SDS011;20469;55.638;37.670;2022-08-19T01:35:13;10.23;;;3.85;;
34200;SDS011;20469;55.638;37.670;2022-08-19T01:37:49;9.43;;;4.10;;
34200;SDS011;20469;55.638;37.670;2022-08-19T01:40:22;10.75;;;3.97;;
34200;SDS011;20469;55.638;37.670;2022-08-19T01:42:55;17.17;;;4.35;;
34200;SDS011;20469;55.638;37.670;2022-08-19T01:45:24;12.68;;;4.35;;
34200;SDS011;20469;55.638;37.670;2022-08-19T01:47:53;9.60;;;3.80;;
34200;SDS011;20469;55.638;37.670;2022-08-19T01:50:28;11.82;;;4.13;;
34200;SDS011;20469;55.638;37.670;2022-08-19T01:52:57;12.13;;;4.00;;
34200;SDS011;20469;55.638;37.670;2022-08-19T01:55:32;11.18;;;4.40;;
34200;SDS011;20469;55.638;37.670;2022-08-19T01:58:06;9.82;;;4.22;;
34200;SDS011;20469;55.638;37.670;2022-08-19T02:00:47;11.20;;;4.07;;
34200;SDS011;20469;55.638;37.670;2022-08-19T02:03:15;10.23;;;4.07;;
34200;SDS011;20469;55.638;37.670;2022-08-19T02:05:43;12.23;;;4.07;;
34200;SDS011;20469;55.638;37.670;2022-08-19T02:08:12;8.77;;;4.20;;
34200;SDS011;20469;55.638;37.670;2022-08-19T02:10:42;9.95;;;3.95;;
34200;SDS011;20469;55.638;37.670;2022-08-19T02:13:10;9.25;;;3.92;;
34200;SDS011;20469;55.638;37.670;2022-08-19T02:15:58;10.50;;;4.10;;
34200;SDS011;20469;55.638;37.670;2022-08-19T02:18:29;8.93;;;3.95;;
34200;SDS011;20469;55.638;37.670;2022-08-19T02:20:56;9.70;;;4.03;;
34200;SDS011;20469;55.638;37.670;2022-08-19T02:23:23;7.78;;;3.90;;
34200;SDS011;20469;55.638;37.670;2022-08-19T02:25:51;8.98;;;3.70;;
34200;SDS011;20469;55.638;37.670;2022-08-19T02:28:18;11.88;;;3.75;;
34200;SDS011;20469;55.638;37.670;2022-08-19T02:30:46;8.07;;;3.97;;
34200;SDS011;20469;55.638;37.670;2022-08-19T02:33:14;5.90;;;3.63;;
34200;SDS011;20469;55.638;37.670;2022-08-19T02:35:43;7.75;;;3.85;;
34200;SDS011;20469;55.638;37.670;2022-08-19T02:38:12;9.93;;;3.80;;
34200;SDS011;20469;55.638;37.670;2022-08-19T02:40:58;13.15;;;3.85;;
34200;SDS011;20469;55.638;37.670;2022-08-19T02:43:28;10.73;;;4.55;;
34200;SDS011;20469;55.638;37.670;2022-08-19T02:45:59;13.13;;;4.85;;
34200;SDS011;20469;55.638;37.670;2022-08-19T02:48:27;12.05;;;4.70;;
34200;SDS011;20469;55.638;37.670;2022-08-19T02:51:05;12.75;;;4.57;;
34200;SDS011;20469;55.638;37.670;2022-08-19T02:53:32;13.43;;;4.45;;
34200;SDS011;20469;55.638;37.670;2022-08-19T02:55:59;12.98;;;5.07;;
34200;SDS011;20469;55.638;37.670;2022-08-19T02:58:27;11.50;;;4.82;;
34200;SDS011;20469;55.638;37.670;2022-08-19T03:00:55;14.20;;;4.53;;
34200;SDS011;20469;55.638;37.670;2022-08-19T03:03:23;12.75;;;5.40;;
34200;SDS011;20469;55.638;37.670;2022-08-19T03:05:51;13.05;;;5.25;;
34200;SDS011;20469;55.638;37.670;2022-08-19T03:08:22;11.15;;;4.80;;
34200;SDS011;20469;55.638;37.670;2022-08-19T03:10:50;14.10;;;5.13;;
34200;SDS011;20469;55.638;37.670;2022-08-19T03:13:19;10.95;;;5.25;;
34200;SDS011;20469;55.638;37.670;2022-08-19T03:15:47;11.45;;;4.40;;
34200;SDS011;20469;55.638;37.670;2022-08-19T03:18:15;13.82;;;4.72;;
34200;SDS011;20469;55.638;37.670;2022-08-19T03:20:44;11.43;;;4.05;;
34200;SDS011;20469;55.638;37.670;2022-08-19T03:23:13;13.52;;;5.10;;
34200;SDS011;20469;55.638;37.670;2022-08-19T03:25:43;14.18;;;5.05;;
34200;SDS011;20469;55.638;37.670;2022-08-19T03:28:29;12.98;;;4.95;;
34200;SDS011;20469;55.638;37.670;2022-08-19T03:30:59;13.48;;;5.05;;
34200;SDS011;20469;55.638;37.670;2022-08-19T03:33:29;10.45;;;4.65;;
34200;SDS011;20469;55.638;37.670;2022-08-19T03:38:36;11.68;;;6.15;;
34200;SDS011;20469;55.638;37.670;2022-08-19T03:41:06;16.42;;;5.78;;
34200;SDS011;20469;55.638;37.670;2022-08-19T03:43:36;11.50;;;4.80;;
34200;SDS011;20469;55.638;37.670;2022-08-19T03:46:05;10.35;;;4.72;;
34200;SDS011;20469;55.638;37.670;2022-08-19T03:48:34;9.20;;;4.32;;
34200;SDS011;20469;55.638;37.670;2022-08-19T03:51:02;14.00;;;5.90;;
34200;SDS011;20469;55.638;37.670;2022-08-19T03:53:30;15.35;;;5.22;;
34200;SDS011;20469;55.638;37.670;2022-08-19T03:55:58;8.55;;;4.50;;
34200;SDS011;20469;55.638;37.670;2022-08-19T03:58:28;15.65;;;5.60;;
34200;SDS011;20469;55.638;37.670;2022-08-19T04:00:56;12.23;;;5.32;;
34200;SDS011;20469;55.638;37.670;2022-08-19T04:03:24;12.82;;;5.18;;
34200;SDS011;20469;55.638;37.670;2022-08-19T04:05:53;12.10;;;5.10;;
34200;SDS011;20469;55.638;37.670;2022-08-19T04:08:20;12.25;;;5.20;;
34200;SDS011;20469;55.638;37.670;2022-08-19T04:10:48;15.02;;;6.28;;
34200;SDS011;20469;55.638;37.670;2022-08-19T04:13:16;12.25;;;5.60;;
34200;SDS011;20469;55.638;37.670;2022-08-19T04:15:45;10.13;;;4.90;;
34200;SDS011;20469;55.638;37.670;2022-08-19T04:18:13;12.85;;;5.22;;
34200;SDS011;20469;55.638;37.670;2022-08-19T04:20:45;15.43;;;5.82;;
34200;SDS011;20469;55.638;37.670;2022-08-19T04:23:14;14.70;;;6.03;;
34200;SDS011;20469;55.638;37.670;2022-08-19T04:25:42;12.93;;;5.50;;
34200;SDS011;20469;55.638;37.670;2022-08-19T04:28:11;13.25;;;5.93;;
34200;SDS011;20469;55.638;37.670;2022-08-19T04:33:22;13.32;;;4.90;;
34200;SDS011;20469;55.638;37.670;2022-08-19T04:35:53;11.10;;;4.97;;
34200;SDS011;20469;55.638;37.670;2022-08-19T04:38:21;14.15;;;6.03;;
34200;SDS011;20469;55.638;37.670;2022-08-19T04:40:51;11.07;;;5.63;;
34200;SDS011;20469;55.638;37.670;2022-08-19T04:43:37;12.60;;;5.60;;
34200;SDS011;20469;55.638;37.670;2022-08-19T04:46:09;14.70;;;5.53;;
34200;SDS011;20469;55.638;37.670;2022-08-19T04:48:58;19.17;;;7.27;;
34200;SDS011;20469;55.638;37.670;2022-08-19T04:51:35;14.27;;;5.72;;
34200;SDS011;20469;55.638;37.670;2022-08-19T04:54:03;13.40;;;6.25;;
34200;SDS011;20469;55.638;37.670;2022-08-19T04:56:30;14.60;;;6.15;;
34200;SDS011;20469;55.638;37.670;2022-08-19T04:58:58;15.73;;;5.88;;
34200;SDS011;20469;55.638;37.670;2022-08-19T05:01:30;14.98;;;6.85;;
34200;SDS011;20469;55.638;37.670;2022-08-19T05:04:00;14.57;;;5.68;;
34200;SDS011;20469;55.638;37.670;2022-08-19T05:06:28;16.17;;;7.97;;
34200;SDS011;20469;55.638;37.670;2022-08-19T05:08:57;14.25;;;6.82;;
34200;SDS011;20469;55.638;37.670;2022-08-19T05:11:26;17.05;;;6.18;;
34200;SDS011;20469;55.638;37.670;2022-08-19T05:16:25;12.43;;;5.70;;
34200;SDS011;20469;55.638;37.670;2022-08-19T05:18:54;15.23;;;6.53;;
34200;SDS011;20469;55.638;37.670;2022-08-19T05:21:41;12.30;;;6.10;;
34200;SDS011;20469;55.638;37.670;2022-08-19T05:24:28;16.67;;;5.90;;
34200;SDS011;20469;55.638;37.670;2022-08-19T05:26:56;18.00;;;6.65;;
34200;SDS011;20469;55.638;37.670;2022-08-19T05:29:25;13.45;;;5.80;;
34200;SDS011;20469;55.638;37.670;2022-08-19T05:32:03;13.20;;;6.30;;
34200;SDS011;20469;55.638;37.670;2022-08-19T05:34:31;14.73;;;5.50;;
34200;SDS011;20469;55.638;37.670;2022-08-19T05:37:00;18.08;;;6.13;;
34200;SDS011;20469;55.638;37.670;2022-08-19T05:39:29;15.13;;;5.90;;
34200;SDS011;20469;55.638;37.670;2022-08-19T05:42:00;9.50;;;5.32;;
34200;SDS011;20469;55.638;37.670;2022-08-19T05:44:31;17.02;;;6.65;;
34200;SDS011;20469;55.638;37.670;2022-08-19T05:47:02;13.88;;;5.47;;
34200;SDS011;20469;55.638;37.670;2022-08-19T05:49:32;13.93;;;7.03;;
34200;SDS011;20469;55.638;37.670;2022-08-19T05:52:11;18.05;;;5.72;;
34200;SDS011;20469;55.638;37.670;2022-08-19T05:54:45;15.63;;;5.90;;
34200;SDS011;20469;55.638;37.670;2022-08-19T05:57:17;16.20;;;6.35;;
34200;SDS011;20469;55.638;37.670;2022-08-19T05:59:46;13.05;;;5.05;;
34200;SDS011;20469;55.638;37.670;2022-08-19T06:02:23;14.52;;;6.28;;
34200;SDS011;20469;55.638;37.670;2022-08-19T06:04:51;16.75;;;6.25;;
34200;SDS011;20469;55.638;37.670;2022-08-19T06:07:18;12.45;;;6.03;;
34200;SDS011;20469;55.638;37.670;2022-08-19T06:09:46;27.55;;;12.70;;
34200;SDS011;20469;55.638;37.670;2022-08-19T06:12:25;27.60;;;13.95;;
34200;SDS011;20469;55.638;37.670;2022-08-19T06:14:55;26.13;;;13.20;;
34200;SDS011;20469;55.638;37.670;2022-08-19T06:17:29;23.65;;;10.02;;
34200;SDS011;20469;55.638;37.670;2022-08-19T06:19:57;23.52;;;9.35;;
34200;SDS011;20469;55.638;37.670;2022-08-19T06:22:26;15.43;;;7.47;;
34200;SDS011;20469;55.638;37.670;2022-08-19T06:24:54;20.20;;;8.50;;
34200;SDS011;20469;55.638;37.670;2022-08-19T06:27:22;27.77;;;16.90;;
34200;SDS011;20469;55.638;37.670;2022-08-19T06:29:49;13.10;;;7.53;;
34200;SDS011;20469;55.638;37.670;2022-08-19T06:32:17;27.23;;;12.15;;
34200;SDS011;20469;55.638;37.670;2022-08-19T06:34:45;22.27;;;10.35;;
34200;SDS011;20469;55.638;37.670;2022-08-19T06:37:13;15.77;;;7.07;;
34200;SDS011;20469;55.638;37.670;2022-08-19T06:39:41;13.43;;;5.97;;
34200;SDS011;20469;55.638;37.670;2022-08-19T06:42:10;15.55;;;6.80;;
34200;SDS011;20469;55.638;37.670;2022-08-19T06:44:43;13.85;;;6.40;;
34200;SDS011;20469;55.638;37.670;2022-08-19T06:47:15;8.82;;;4.40;;
34200;SDS011;20469;55.638;37.670;2022-08-19T06:49:52;21.85;;;6.07;;
34200;SDS011;20469;55.638;37.670;2022-08-19T06:52:30;14.98;;;6.95;;
34200;SDS011;20469;55.638;37.670;2022-08-19T06:55:01;19.27;;;7.00;;
34200;SDS011;20469;55.638;37.670;2022-08-19T06:57:32;16.13;;;7.28;;
34200;SDS011;20469;55.638;37.670;2022-08-19T07:00:00;11.60;;;5.30;;
34200;SDS011;20469;55.638;37.670;2022-08-19T07:04:56;15.98;;;5.38;;
34200;SDS011;20469;55.638;37.670;2022-08-19T07:07:24;12.18;;;5.20;;
34200;SDS011;20469;55.638;37.670;2022-08-19T07:09:51;24.05;;;8.27;;
34200;SDS011;20469;55.638;37.670;2022-08-19T07:12:29;14.75;;;5.63;;
34200;SDS011;20469;55.638;37.670;2022-08-19T07:15:03;17.73;;;6.45;;
34200;SDS011;20469;55.638;37.670;2022-08-19T07:17:37;18.52;;;5.88;;
34200;SDS011;20469;55.638;37.670;2022-08-19T07:20:07;14.70;;;5.60;;
34200;SDS011;20469;55.638;37.670;2022-08-19T07:22:37;16.05;;;6.78;;
34200;SDS011;20469;55.638;37.670;2022-08-19T07:25:06;17.45;;;6.13;;
34200;SDS011;20469;55.638;37.670;2022-08-19T07:27:36;15.25;;;5.13;;
34200;SDS011;20469;55.638;37.670;2022-08-19T07:30:06;11.82;;;4.97;;
34200;SDS011;20469;55.638;37.670;2022-08-19T07:32:37;23.27;;;5.50;;
34200;SDS011;20469;55.638;37.670;2022-08-19T07:35:05;20.77;;;5.28;;
34200;SDS011;20469;55.638;37.670;2022-08-19T07:37:33;19.55;;;5.70;;
34200;SDS011;20469;55.638;37.670;2022-08-19T07:40:12;19.35;;;4.70;;
34200;SDS011;20469;55.638;37.670;2022-08-19T07:42:40;13.00;;;4.68;;
34200;SDS011;20469;55.638;37.670;2022-08-19T07:45:09;11.57;;;4.47;;
34200;SDS011;20469;55.638;37.670;2022-08-19T07:47:37;13.20;;;4.10;;
34200;SDS011;20469;55.638;37.670;2022-08-19T07:50:16;14.30;;;4.63;;
34200;SDS011;20469;55.638;37.670;2022-08-19T07:52:45;9.77;;;4.18;;
34200;SDS011;20469;55.638;37.670;2022-08-19T07:55:15;15.48;;;4.30;;
34200;SDS011;20469;55.638;37.670;2022-08-19T07:58:04;10.15;;;4.00;;
34200;SDS011;20469;55.638;37.670;2022-08-19T08:00:31;12.77;;;4.00;;
34200;SDS011;20469;55.638;37.670;2022-08-19T08:02:58;15.73;;;5.50;;
34200;SDS011;20469;55.638;37.670;2022-08-19T08:05:26;11.60;;;4.40;;
34200;SDS011;20469;55.638;37.670;2022-08-19T08:08:12;11.07;;;4.20;;
34200;SDS011;20469;55.638;37.670;2022-08-19T08:10:58;11.43;;;3.67;;
34200;SDS011;20469;55.638;37.670;2022-08-19T08:13:26;11.77;;;4.15;;
34200;SDS011;20469;55.638;37.670;2022-08-19T08:15:54;10.77;;;3.63;;
34200;SDS011;20469;55.638;37.670;2022-08-19T08:18:23;9.43;;;3.65;;
34200;SDS011;20469;55.638;37.670;2022-08-19T08:20:53;7.43;;;4.05;;
34200;SDS011;20469;55.638;37.670;2022-08-19T08:23:21;12.80;;;3.95;;
34200;SDS011;20469;55.638;37.670;2022-08-19T08:25:52;11.18;;;3.63;;
34200;SDS011;20469;55.638;37.670;2022-08-19T08:28:21;16.15;;;4.30;;
34200;SDS011;20469;55.638;37.670;2022-08-19T08:30:49;8.15;;;3.80;;
34200;SDS011;20469;55.638;37.670;2022-08-19T08:33:21;7.85;;;3.47;;
34200;SDS011;20469;55.638;37.670;2022-08-19T08:38:34;12.63;;;3.78;;
34200;SDS011;20469;55.638;37.670;2022-08-19T08:43:47;10.02;;;3.45;;
34200;SDS011;20469;55.638;37.670;2022-08-19T08:46:34;17.13;;;3.30;;
34200;SDS011;20469;55.638;37.670;2022-08-19T08:49:52;17.13;;;3.55;;
34200;SDS011;20469;55.638;37.670;2022-08-19T08:51:59;8.95;;;3.47;;
34200;SDS011;20469;55.638;37.670;2022-08-19T08:54:37;11.35;;;3.53;;
34200;SDS011;20469;55.638;37.670;2022-08-19T09:00:08;12.48;;;3.65;;
34200;SDS011;20469;55.638;37.670;2022-08-19T09:02:48;7.22;;;2.72;;
34200;SDS011;20469;55.638;37.670;2022-08-19T09:05:16;10.23;;;3.33;;
34200;SDS011;20469;55.638;37.670;2022-08-19T09:08:02;9.15;;;3.03;;
34200;SDS011;20469;55.638;37.670;2022-08-19T09:15:53;8.95;;;3.67;;
34200;SDS011;20469;55.638;37.670;2022-08-19T09:18:56;16.55;;;3.80;;
34200;SDS011;20469;55.638;37.670;2022-08-19T09:21:31;8.65;;;3.25;;
34200;SDS011;20469;55.638;37.670;2022-08-19T09:24:00;11.95;;;3.17;;
34200;SDS011;20469;55.638;37.670;2022-08-19T09:26:29;11.77;;;3.20;;
34200;SDS011;20469;55.638;37.670;2022-08-19T09:29:18;10.32;;;3.08;;
34200;SDS011;20469;55.638;37.670;2022-08-19T09:31:48;8.52;;;3.13;;
34200;SDS011;20469;55.638;37.670;2022-08-19T09:34:16;11.15;;;3.47;;
34200;SDS011;20469;55.638;37.670;2022-08-19T09:36:49;11.05;;;3.00;;
34200;SDS011;20469;55.638;37.670;2022-08-19T09:39:20;7.00;;;3.13;;
34200;SDS011;20469;55.638;37.670;2022-08-19T09:41:47;8.98;;;2.80;;
34200;SDS011;20469;55.638;37.670;2022-08-19T09:44:16;7.88;;;2.80;;
34200;SDS011;20469;55.638;37.670;2022-08-19T09:46:44;9.30;;;2.30;;
34200;SDS011;20469;55.638;37.670;2022-08-19T09:49:14;10.93;;;2.97;;
34200;SDS011;20469;55.638;37.670;2022-08-19T09:51:44;9.73;;;2.53;;
34200;SDS011;20469;55.638;37.670;2022-08-19T09:54:16;26.42;;;4.15;;
34200;SDS011;20469;55.638;37.670;2022-08-19T09:56:50;14.73;;;3.20;;
34200;SDS011;20469;55.638;37.670;2022-08-19T09:59:17;9.45;;;2.83;;
34200;SDS011;20469;55.638;37.670;2022-08-19T10:01:45;8.82;;;2.90;;
34200;SDS011;20469;55.638;37.670;2022-08-19T10:04:13;8.27;;;2.75;;
34200;SDS011;20469;55.638;37.670;2022-08-19T10:12:00;8.93;;;2.90;;
34200;SDS011;20469;55.638;37.670;2022-08-19T10:14:29;11.13;;;3.60;;
34200;SDS011;20469;55.638;37.670;2022-08-19T10:16:56;9.65;;;2.70;;
34200;SDS011;20469;55.638;37.670;2022-08-19T10:19:24;8.88;;;2.78;;
34200;SDS011;20469;55.638;37.670;2022-08-19T10:21:52;17.35;;;2.72;;
34200;SDS011;20469;55.638;37.670;2022-08-19T10:24:26;13.23;;;2.80;;
34200;SDS011;20469;55.638;37.670;2022-08-19T10:26:55;10.13;;;2.83;;
34200;SDS011;20469;55.638;37.670;2022-08-19T10:29:25;10.70;;;3.10;;
34200;SDS011;20469;55.638;37.670;2022-08-19T10:31:59;5.53;;;2.63;;
34200;SDS011;20469;55.638;37.670;2022-08-19T10:34:35;9.27;;;2.83;;
34200;SDS011;20469;55.638;37.670;2022-08-19T10:37:15;11.85;;;2.80;;
34200;SDS011;20469;55.638;37.670;2022-08-19T10:39:56;12.50;;;2.88;;
34200;SDS011;20469;55.638;37.670;2022-08-19T10:42:24;8.10;;;2.42;;
34200;SDS011;20469;55.638;37.670;2022-08-19T10:44:51;9.75;;;2.22;;
34200;SDS011;20469;55.638;37.670;2022-08-19T10:47:18;10.85;;;2.72;;
34200;SDS011;20469;55.638;37.670;2022-08-19T10:49:52;8.93;;;2.60;;
34200;SDS011;20469;55.638;37.670;2022-08-19T10:52:43;16.90;;;3.22;;
34200;SDS011;20469;55.638;37.670;2022-08-19T10:55:21;9.68;;;2.92;;
34200;SDS011;20469;55.638;37.670;2022-08-19T10:58:13;5.90;;;2.20;;
34200;SDS011;20469;55.638;37.670;2022-08-19T11:00:42;13.25;;;2.95;;
34200;SDS011;20469;55.638;37.670;2022-08-19T11:03:17;9.95;;;2.20;;
34200;SDS011;20469;55.638;37.670;2022-08-19T11:05:44;3.80;;;2.25;;
34200;SDS011;20469;55.638;37.670;2022-08-19T11:08:12;10.13;;;3.22;;
34200;SDS011;20469;55.638;37.670;2022-08-19T11:10:48;10.95;;;3.50;;
34200;SDS011;20469;55.638;37.670;2022-08-19T11:13:23;8.50;;;2.67;;
34200;SDS011;20469;55.638;37.670;2022-08-19T11:15:58;14.88;;;3.20;;
34200;SDS011;20469;55.638;37.670;2022-08-19T11:18:34;10.30;;;3.28;;
34200;SDS011;20469;55.638;37.670;2022-08-19T11:21:13;6.72;;;2.55;;
34200;SDS011;20469;55.638;37.670;2022-08-19T11:23:49;10.88;;;3.20;;
34200;SDS011;20469;55.638;37.670;2022-08-19T11:26:19;7.65;;;2.80;;
34200;SDS011;20469;55.638;37.670;2022-08-19T11:28:48;7.60;;;2.65;;
34200;SDS011;20469;55.638;37.670;2022-08-19T11:31:19;9.23;;;2.72;;
34200;SDS011;20469;55.638;37.670;2022-08-19T11:33:55;8.93;;;3.00;;
34200;SDS011;20469;55.638;37.670;2022-08-19T11:36:24;7.68;;;2.63;;
34200;SDS011;20469;55.638;37.670;2022-08-19T11:38:52;7.03;;;2.70;;
34200;SDS011;20469;55.638;37.670;2022-08-19T11:41:20;7.05;;;2.88;;
34200;SDS011;20469;55.638;37.670;2022-08-19T11:43:52;10.75;;;2.45;;
34200;SDS011;20469;55.638;37.670;2022-08-19T11:46:22;6.93;;;2.78;;
34200;SDS011;20469;55.638;37.670;2022-08-19T11:48:51;6.70;;;2.90;;
34200;SDS011;20469;55.638;37.670;2022-08-19T11:51:20;7.60;;;3.00;;
34200;SDS011;20469;55.638;37.670;2022-08-19T11:53:48;6.55;;;2.83;;
34200;SDS011;20469;55.638;37.670;2022-08-19T11:56:17;9.27;;;2.72;;
34200;SDS011;20469;55.638;37.670;2022-08-19T11:58:45;10.43;;;2.40;;
34200;SDS011;20469;55.638;37.670;2022-08-19T12:01:14;6.43;;;2.58;;
34200;SDS011;20469;55.638;37.670;2022-08-19T12:03:43;9.27;;;2.85;;
34200;SDS011;20469;55.638;37.670;2022-08-19T12:06:15;11.10;;;2.80;;
34200;SDS011;20469;55.638;37.670;2022-08-19T12:08:44;11.52;;;2.95;;
34200;SDS011;20469;55.638;37.670;2022-08-19T12:11:14;9.70;;;3.13;;
34200;SDS011;20469;55.638;37.670;2022-08-19T12:13:41;9.35;;;2.70;;
34200;SDS011;20469;55.638;37.670;2022-08-19T12:16:46;7.80;;;2.75;;
34200;SDS011;20469;55.638;37.670;2022-08-19T12:19:17;13.38;;;3.50;;
34200;SDS011;20469;55.638;37.670;2022-08-19T12:21:48;14.95;;;3.38;;
34200;SDS011;20469;55.638;37.670;2022-08-19T12:24:16;11.45;;;2.80;;
34200;SDS011;20469;55.638;37.670;2022-08-19T12:26:49;5.18;;;2.85;;
34200;SDS011;20469;55.638;37.670;2022-08-19T12:29:19;6.13;;;2.72;;
34200;SDS011;20469;55.638;37.670;2022-08-19T12:31:49;11.00;;;3.10;;
34200;SDS011;20469;55.638;37.670;2022-08-19T12:34:17;6.50;;;2.50;;
34200;SDS011;20469;55.638;37.670;2022-08-19T12:36:47;6.75;;;2.90;;
34200;SDS011;20469;55.638;37.670;2022-08-19T12:39:15;8.23;;;2.85;;
34200;SDS011;20469;55.638;37.670;2022-08-19T12:41:43;12.75;;;3.00;;
34200;SDS011;20469;55.638;37.670;2022-08-19T12:44:20;7.10;;;2.80;;
34200;SDS011;20469;55.638;37.670;2022-08-19T12:46:55;12.93;;;2.85;;
34200;SDS011;20469;55.638;37.670;2022-08-19T12:49:23;17.42;;;3.47;;
34200;SDS011;20469;55.638;37.670;2022-08-19T12:52:11;19.08;;;3.72;;
34200;SDS011;20469;55.638;37.670;2022-08-19T12:54:48;16.70;;;3.53;;
34200;SDS011;20469;55.638;37.670;2022-08-19T12:57:20;11.97;;;3.30;;
34200;SDS011;20469;55.638;37.670;2022-08-19T12:59:59;13.10;;;3.47;;
34200;SDS011;20469;55.638;37.670;2022-08-19T13:02:33;10.95;;;3.10;;
34200;SDS011;20469;55.638;37.670;2022-08-19T13:05:05;6.43;;;2.63;;
34200;SDS011;20469;55.638;37.670;2022-08-19T13:07:35;12.93;;;2.97;;
34200;SDS011;20469;55.638;37.670;2022-08-19T13:10:07;12.73;;;3.65;;
34200;SDS011;20469;55.638;37.670;2022-08-19T13:12:36;18.60;;;3.92;;
34200;SDS011;20469;55.638;37.670;2022-08-19T13:15:04;6.60;;;2.97;;
34200;SDS011;20469;55.638;37.670;2022-08-19T13:20:05;18.00;;;4.68;;
34200;SDS011;20469;55.638;37.670;2022-08-19T13:22:34;7.25;;;4.07;;
34200;SDS011;20469;55.638;37.670;2022-08-19T13:25:03;13.30;;;3.30;;
34200;SDS011;20469;55.638;37.670;2022-08-19T13:27:33;10.20;;;3.85;;
34200;SDS011;20469;55.638;37.670;2022-08-19T13:30:02;7.50;;;3.47;;
34200;SDS011;20469;55.638;37.670;2022-08-19T13:32:48;10.80;;;3.65;;
34200;SDS011;20469;55.638;37.670;2022-08-19T13:35:34;7.35;;;3.47;;
34200;SDS011;20469;55.638;37.670;2022-08-19T13:38:02;12.68;;;4.13;;
34200;SDS011;20469;55.638;37.670;2022-08-19T13:40:37;9.45;;;5.78;;
34200;SDS011;20469;55.638;37.670;2022-08-19T13:43:07;12.77;;;6.82;;
34200;SDS011;20469;55.638;37.670;2022-08-19T13:45:49;14.10;;;6.32;;
34200;SDS011;20469;55.638;37.670;2022-08-19T13:48:24;12.68;;;6.97;;
34200;SDS011;20469;55.638;37.670;2022-08-19T13:50:53;11.20;;;6.90;;
34200;SDS011;20469;55.638;37.670;2022-08-19T13:53:21;8.98;;;6.68;;
34200;SDS011;20469;55.638;37.670;2022-08-19T13:55:48;17.40;;;8.40;;
34200;SDS011;20469;55.638;37.670;2022-08-19T13:58:17;20.02;;;9.40;;
34200;SDS011;20469;55.638;37.670;2022-08-19T14:00:46;17.75;;;12.10;;
34200;SDS011;20469;55.638;37.670;2022-08-19T14:03:14;21.00;;;10.95;;
34200;SDS011;20469;55.638;37.670;2022-08-19T14:05:41;22.92;;;10.60;;
34200;SDS011;20469;55.638;37.670;2022-08-19T14:08:08;20.05;;;10.23;;
34200;SDS011;20469;55.638;37.670;2022-08-19T14:10:36;14.93;;;9.43;;
34200;SDS011;20469;55.638;37.670;2022-08-19T14:13:03;17.25;;;10.40;;
34200;SDS011;20469;55.638;37.670;2022-08-19T14:15:31;14.93;;;9.32;;
34200;SDS011;20469;55.638;37.670;2022-08-19T14:17:58;15.15;;;7.68;;
34200;SDS011;20469;55.638;37.670;2022-08-19T14:20:26;13.90;;;8.18;;
34200;SDS011;20469;55.638;37.670;2022-08-19T14:22:54;11.02;;;6.00;;
34200;SDS011;20469;55.638;37.670;2022-08-19T14:25:24;11.15;;;6.57;;
34200;SDS011;20469;55.638;37.670;2022-08-19T14:27:53;15.82;;;9.13;;
34200;SDS011;20469;55.638;37.670;2022-08-19T14:30:23;22.00;;;18.20;;
34200;SDS011;20469;55.638;37.670;2022-08-19T14:32:54;30.73;;;20.20;;
34200;SDS011;20469;55.638;37.670;2022-08-19T14:35:22;31.88;;;19.70;;
34200;SDS011;20469;55.638;37.670;2022-08-19T14:37:50;39.45;;;25.98;;
34200;SDS011;20469;55.638;37.670;2022-08-19T14:40:23;30.33;;;22.27;;
34200;SDS011;20469;55.638;37.670;2022-08-19T14:43:01;23.48;;;18.88;;
34200;SDS011;20469;55.638;37.670;2022-08-19T14:45:34;29.33;;;19.10;;
34200;SDS011;20469;55.638;37.670;2022-08-19T14:48:04;24.98;;;19.60;;
34200;SDS011;20469;55.638;37.670;2022-08-19T14:50:32;23.63;;;18.05;;
34200;SDS011;20469;55.638;37.670;2022-08-19T14:53:02;29.05;;;19.00;;
34200;SDS011;20469;55.638;37.670;2022-08-19T14:55:40;29.40;;;17.50;;
34200;SDS011;20469;55.638;37.670;2022-08-19T14:58:09;23.73;;;15.93;;
34200;SDS011;20469;55.638;37.670;2022-08-19T15:00:53;22.70;;;14.57;;
34200;SDS011;20469;55.638;37.670;2022-08-19T15:03:21;19.98;;;14.10;;
34200;SDS011;20469;55.638;37.670;2022-08-19T15:05:48;14.65;;;9.70;;
34200;SDS011;20469;55.638;37.670;2022-08-19T15:08:15;19.02;;;10.95;;
34200;SDS011;20469;55.638;37.670;2022-08-19T15:10:42;17.27;;;10.05;;
34200;SDS011;20469;55.638;37.670;2022-08-19T15:13:10;17.63;;;9.35;;
34200;SDS011;20469;55.638;37.670;2022-08-19T15:15:37;13.00;;;7.65;;
34200;SDS011;20469;55.638;37.670;2022-08-19T15:18:05;17.52;;;8.77;;
34200;SDS011;20469;55.638;37.670;2022-08-19T15:20:32;14.27;;;7.35;;